Πλησιέστερες Αναφορές METAR

 

LGTS - Thessaloniki/Makedonia-Elev 7m
Απόσταση από σταθμό: Ν 13km
Ενημερώθηκε: 20/02/2018 19:20
Μερικώς νεφελώδης
Μερικώς νεφελώδης
 Ανεμοι από ΒΔ
Ανεμος: ΒΔ 9 km/h
Θερμοκρασία: 9°C
Δείκτης Ψύχρας: 7°C
Σημείο Δρόσου: 4°C
Υγρασία: 71%
Βαρόμετρο: 1012 hPa
Νέφωση: Μερικώς νεφελώδης
Ορατότητα: 10 km
Λεπτομέρειες Νεφών: Διάσπαρτα Νέφη 305 m
Μερικώς νεφελώδης 914 m
2018/02/20 17:20 LGTS 201720Z 31005KT 9999 FEW010 SCT030 09/04 Q1012 NOSIG
LGAV - Athens/Elef. Venizelos-Elev 94m
Απόσταση από σταθμό: ΝΝΑ 312km
Ενημερώθηκε: 20/02/2018 19:20
Σχεδόν νεφελώδης
Σχεδόν νεφελώδης
 Ανεμοι από Β
Ανεμος: Β 6 km/h
Θερμοκρασία: 10°C
Σημείο Δρόσου: 6°C
Υγρασία: 76%
Βαρόμετρο: 1010 hPa
Νέφωση: Σχεδόν νεφελώδης
Ορατότητα: 10 km
Λεπτομέρειες Νεφών: Διάσπαρτα Νέφη 457 m
Σχεδόν νεφελώδης 762 m
Σχεδόν νεφελώδης 2134 m
2018/02/20 17:20 LGAV 201720Z 36003KT 9999 FEW015 BKN025 BKN070 10/06 Q1010 NOSIG
 
LGAL - Alexandroupolis-Elev 3m
Απόσταση από σταθμό: Α 251km
Ενημερώθηκε: 20/02/2018 19:20
Σχεδόν νεφελώδης
Σχεδόν νεφελώδης
 Ανεμοι από ΒΒΑ
Ανεμος: ΒΒΑ 26 km/h
Θερμοκρασία: 7°C
Δείκτης Ψύχρας: 3°C
Σημείο Δρόσου: 4°C
Υγρασία: 81%
Βαρόμετρο: 1013 hPa
Νέφωση: Σχεδόν νεφελώδης
Ορατότητα: 10 km
Λεπτομέρειες Νεφών: Διάσπαρτα Νέφη 457 m
Σχεδόν νεφελώδης 610 m
2018/02/20 17:20 LGAL 201720Z 03014KT 9999 FEW015 BKN020 07/04 Q1013
LGKV - Kavala/Crysoupolis-Elev 5m
Απόσταση από σταθμό: ΑΒΑ 144km
Ενημερώθηκε: 20/02/2018 19:20
Σχεδόν νεφελώδης
Σχεδόν νεφελώδης
 Ανεμοι από ΑΒΑ
Ανεμος: ΑΒΑ 13 km/h
Θερμοκρασία: 7°C
Δείκτης Ψύχρας: 5°C
Σημείο Δρόσου: 3°C
Υγρασία: 76%
Βαρόμετρο: 1013 hPa
Νέφωση: Σχεδόν νεφελώδης
Ορατότητα: 10 km
Λεπτομέρειες Νεφών: Διάσπαρτα Νέφη 610 m
Μερικώς νεφελώδης 914 m
Σχεδόν νεφελώδης 2438 m
2018/02/20 17:20 LGKV 201720Z 06007KT 9999 FEW020 SCT030 BKN080 07/03 Q1013
 
LGSK - Skiathos Island-Elev 15m
Απόσταση από σταθμό: ΝΝΑ 168km
Ενημερώθηκε: 20/02/2018 18:50
Ασθενής βροχή, Συννεφιά
Ασθενής βροχή, Συννεφιά
 Ανεμοι από ΒΑ
Ανεμος: ΒΑ 15 km/h
Θερμοκρασία: 10°C
Δείκτης Ψύχρας: 8°C
Σημείο Δρόσου: 7°C
Υγρασία: 82%
Βαρόμετρο: 1011 hPa
Περίληψη: Ασθενής βροχή
Νέφωση: Συννεφιά
Ορατότητα: 10 km
Λεπτομέρειες Νεφών: Μερικώς νεφελώδης 244 m
Συννεφιά 610 m
2018/02/20 16:50 LGSK 201650Z 04008KT 9999 -RA SCT008 OVC020 10/07 Q1011
LGLM - Limnos Island-Elev 5m
Απόσταση από σταθμό: ΑΝΑ 210km
Ενημερώθηκε: 20/02/2018 19:20
Μερικώς νεφελώδης
Μερικώς νεφελώδης
 Ανεμοι από ΑΒΑ
Ανεμος: ΑΒΑ 15 km/h
Θερμοκρασία: 9°C
Δείκτης Ψύχρας: 7°C
Σημείο Δρόσου: 6°C
Υγρασία: 82%
Βαρόμετρο: 1011 hPa
Νέφωση: Μερικώς νεφελώδης
Ορατότητα: 10 km
Λεπτομέρειες Νεφών: Διάσπαρτα Νέφη 366 m
Μερικώς νεφελώδης 610 m
2018/02/20 17:20 LGLM 201720Z 06008KT 9999 FEW012 SCT020 09/06 Q1011
 
LGMT - Mitilini Island-Elev 17m
Απόσταση από σταθμό: ΑΝΑ 358km
Ενημερώθηκε: 20/02/2018 19:20
Σχεδόν νεφελώδης
Σχεδόν νεφελώδης
 Ανεμοι από άπνοια
Ανεμος: άπνοια
Θερμοκρασία: 11°C
Σημείο Δρόσου: 8°C
Υγρασία: 82%
Βαρόμετρο: 1011 hPa
Νέφωση: Σχεδόν νεφελώδης
Ορατότητα: 8 km
Λεπτομέρειες Νεφών: Σχεδόν νεφελώδης 762 m
2018/02/20 17:20 LGMT 201720Z 00000KT 8000 BKN025 11/08 Q1011
LGSY - Skiros Island-Elev 15m
Απόσταση από σταθμό: ΝΑ 227km
Ενημερώθηκε: 20/02/2018 18:50
Σχεδόν νεφελώδης
Σχεδόν νεφελώδης
 Ανεμοι από ΒΒΑ
Ανεμος: ΒΒΑ 13 km/h
Θερμοκρασία: 11°C
Σημείο Δρόσου: 6°C
Υγρασία: 72%
Βαρόμετρο: 1009 hPa
Νέφωση: Σχεδόν νεφελώδης
Ορατότητα: 10 km
Λεπτομέρειες Νεφών: Διάσπαρτα Νέφη 366 m
Σχεδόν νεφελώδης 610 m
2018/02/20 16:50 LGSY 201650Z 03007KT 9999 FEW012 BKN020 11/06 Q1009 RMK OVC080 BLU
 
LGKZ - Kozani-Elev 628m
Απόσταση από σταθμό: ΔΝΔ 102km
Ενημερώθηκε: 20/02/2018 18:50
Συννεφιά
Συννεφιά
 Ανεμοι από άπνοια
Ανεμος: άπνοια
Θερμοκρασία: 4°C
Σημείο Δρόσου: 3°C
Υγρασία: 93%
Βαρόμετρο: 1010 hPa
Νέφωση: Συννεφιά
Ορατότητα: 10 km
Λεπτομέρειες Νεφών: Μερικώς νεφελώδης 183 m
Σχεδόν νεφελώδης 610 m
Συννεφιά 2134 m
2018/02/20 16:50 LGKZ 201650Z 00000KT 9999 SCT006 BKN020 OVC070 04/03 Q1010
LGIO - Ioannina-Elev 476m
Απόσταση από σταθμό: ΔΝΔ 209km
Ενημερώθηκε: 20/02/2018 18:50
Ασθενής βροχή, Σχεδόν νεφελώδης
Ασθενής βροχή, Σχεδόν νεφελώδης
 Ανεμοι από μεταβλητός
Ανεμος: μεταβλητός 0 km/h
Θερμοκρασία: 7°C
Σημείο Δρόσου: 6°C
Υγρασία: 93%
Βαρόμετρο: 1007 hPa
Περίληψη: Ασθενής βροχή
Νέφωση: Σχεδόν νεφελώδης
Ορατότητα: 10 km
Λεπτομέρειες Νεφών: Σχεδόν νεφελώδης 914 m
Σχεδόν νεφελώδης 2134 m
2018/02/20 16:50 LGIO 201650Z /////KT 9999 -RA BKN030 BKN070 07/06 Q1007
 
LGZA - Zakinthos-Elev 3m
Απόσταση από σταθμό: ΝΝΔ 367km
Ενημερώθηκε: 20/02/2018 19:20
Ασθενής βροχή, Σχεδόν νεφελώδης
Ασθενής βροχή, Σχεδόν νεφελώδης
 Ανεμοι από ΝΑ
Ανεμος: ΝΑ 19 km/h
Θερμοκρασία: 12°C
Σημείο Δρόσου: 11°C
Υγρασία: 94%
Βαρόμετρο: 1006 hPa
Περίληψη: Ασθενής βροχή
Νέφωση: Σχεδόν νεφελώδης
Ορατότητα: 8 km
Λεπτομέρειες Νεφών: Μερικώς νεφελώδης 366 m
Σχεδόν νεφελώδης 549 m
Σχεδόν νεφελώδης 2134 m
2018/02/20 17:20 LGZA 201720Z 14010KT 8000 -RA SCT012 BKN018 BKN070 12/11 Q1006
LGKR - Corfu Island-Elev 2m
Απόσταση από σταθμό: ΔΝΔ 282km
Ενημερώθηκε: 20/02/2018 19:20
Nearby thunderstorm, Σχεδόν νεφελώδης
Nearby thunderstorm, Σχεδόν νεφελώδης
 Ανεμοι από ΝΑ
Ανεμος: ΝΑ 30 km/h
Θερμοκρασία: 12°C
Σημείο Δρόσου: 8°C
Υγρασία: 77%
Βαρόμετρο: 1005 hPa
Περίληψη: Nearby Thunderstorm
Νέφωση: Σχεδόν νεφελώδης
Ορατότητα: 10 km
Λεπτομέρειες Νεφών: Μερικώς νεφελώδης 457 m
Διάσπαρτα Νέφη 549 m
Σχεδόν νεφελώδης 762 m
Σχεδόν νεφελώδης 2438 m
2018/02/20 17:20 LGKR 201720Z 13016KT 9999 VCTS SCT015 FEW018CB BKN025 BKN080 12/08 Q1005 BECMG TSRA
 
LGSO - Syros Island-Elev 72m
Απόσταση από σταθμό: ΝΝΑ 397km
Ενημερώθηκε: 20/02/2018 19:20

 Ανεμοι από ΒΒΑ
Ανεμος: ΒΒΑ 15 km/h
Θερμοκρασία: 12°C
Σημείο Δρόσου: 9°C
Υγρασία: 82%
Βαρόμετρο: 1009 hPa
2018/02/20 17:20 LGSO 201720Z AUTO 03008KT //// // ////// 12/09 Q1009 RE//
LGMK - Mikonos Island-Elev 123m
Απόσταση από σταθμό: ΝΝΑ 412km
Ενημερώθηκε: 20/02/2018 18:50
Μερικώς νεφελώδης
Μερικώς νεφελώδης
 Ανεμοι από Β
Ανεμος: Β 20 km/h
Θερμοκρασία: 12°C
Σημείο Δρόσου: 9°C
Υγρασία: 82%
Βαρόμετρο: 1009 hPa
Νέφωση: Μερικώς νεφελώδης
Ορατότητα: 10 km
Λεπτομέρειες Νεφών: Διάσπαρτα Νέφη 244 m
Μερικώς νεφελώδης 762 m
2018/02/20 16:50 LGMK 201650Z 01011KT 9999 FEW008 SCT025 12/09 Q1009
 
LGSR - Santorini Island-Elev 40m
Απόσταση από σταθμό: ΝΝΑ 520km
Ενημερώθηκε: 20/02/2018 19:20
Μερικώς νεφελώδης
Μερικώς νεφελώδης
 Ανεμοι από ΔΝΔ
Ανεμος: ΔΝΔ 7 km/h
Θερμοκρασία: 12°C
Σημείο Δρόσου: 8°C
Υγρασία: 77%
Βαρόμετρο: 1009 hPa
Νέφωση: Μερικώς νεφελώδης
Ορατότητα: 10 km
Λεπτομέρειες Νεφών: Διάσπαρτα Νέφη 488 m
Μερικώς νεφελώδης 610 m
2018/02/20 17:20 LGSR 201720Z 24004KT 9999 FEW016 SCT020 12/08 Q1009
LGKL - Kalamata-Elev 8m
Απόσταση από σταθμό: Ν 405km
Ενημερώθηκε: 20/02/2018 19:20
Ασθενής βροχή, Συννεφιά
Ασθενής βροχή, Συννεφιά
 Ανεμοι από άπνοια
Ανεμος: άπνοια
Θερμοκρασία: 11°C
Σημείο Δρόσου: 10°C
Υγρασία: 94%
Βαρόμετρο: 1008 hPa
Περίληψη: Ασθενής βροχή
Νέφωση: Συννεφιά
Ορατότητα: 8 km
Λεπτομέρειες Νεφών: Διάσπαρτα Νέφη 610 m
Μερικώς νεφελώδης 914 m
Συννεφιά 2438 m
2018/02/20 17:20 LGKL 201720Z 00000KT 8000 -RA FEW020TCU SCT030 OVC080 11/10 Q1008
 
LGIR - Iraklion/Crete-Elev 5m
Απόσταση από σταθμό: ΝΝΑ 622km
Ενημερώθηκε: 20/02/2018 19:20
Μερικώς νεφελώδης
Μερικώς νεφελώδης
 Ανεμοι από Ν
Ανεμος: Ν 7 km/h
Θερμοκρασία: 13°C
Σημείο Δρόσου: 12°C
Υγρασία: 94%
Βαρόμετρο: 1009 hPa
Νέφωση: Μερικώς νεφελώδης
Ορατότητα: 10 km
Λεπτομέρειες Νεφών: Διάσπαρτα Νέφη 549 m
Μερικώς νεφελώδης 762 m
2018/02/20 17:20 LGIR 201720Z 18004KT 9999 FEW018TCU SCT025 13/12 Q1009 NOSIG
LGRP - Rhodes-Elev 5m
Απόσταση από σταθμό: ΝΑ 649km
Ενημερώθηκε: 20/02/2018 19:20
Μερικώς νεφελώδης
Μερικώς νεφελώδης
 Ανεμοι από μεταβλητός
Ανεμος: μεταβλητός 4 km/h
Θερμοκρασία: 13°C
Σημείο Δρόσου: 11°C
Υγρασία: 88%
Βαρόμετρο: 1010 hPa
Νέφωση: Μερικώς νεφελώδης
Ορατότητα: 10 km
Λεπτομέρειες Νεφών: Μερικώς νεφελώδης 549 m
Μερικώς νεφελώδης 762 m
2018/02/20 17:20 LGRP 201720Z VRB02KT 9999 SCT018 SCT025 13/11 Q1010 NOSIG
 
LWOH - Ohrid/FYROM-Elev 761m
Απόσταση από σταθμό: ΔΒΔ 188km
Ενημερώθηκε: 20/02/2018 17:00
ΜΗ Ενημερωμένο METAR!
Συννεφιά
Συννεφιά
 Ανεμοι από Α
Ανεμος: Α 13 km/h
Θερμοκρασία: 6°C
Δείκτης Ψύχρας: 3°C
Σημείο Δρόσου: 1°C
Υγρασία: 71%
Βαρόμετρο: 1007 hPa
Νέφωση: Συννεφιά
Ορατότητα: 10 km
Λεπτομέρειες Νεφών: Συννεφιά 1067 m
2018/02/20 15:00 LWOH 201500Z 09007KT 9999 OVC035 06/01 Q1007
LBSF - Sofia/Bulgaria-Elev 595m
Απόσταση από σταθμό: Β 227km
Ενημερώθηκε: 20/02/2018 19:30
Συννεφιά
Συννεφιά
 Ανεμοι από ΝΑ
Ανεμος: ΝΑ 17 km/h
Θερμοκρασία: 3°C
Δείκτης Ψύχρας: -1°C
Σημείο Δρόσου: 2°C
Υγρασία: 93%
Βαρόμετρο: 1012 hPa
Νέφωση: Συννεφιά
Ορατότητα: 10 km
Λεπτομέρειες Νεφών: Συννεφιά 396 m
2018/02/20 17:30 LBSF 201730Z 13009KT 9999 OVC013 03/02 Q1012 NOSIG